Time;durP1;ratioP1;P1;durP2;ratioP2;P2;SDS_P1;SDS_P2;PMS_P1;PMS_P2;Temp;Humidity;BMP_temperature;BMP_pressure;BME280_temperature;BME280_humidity;BME280_pressure;Samples;Min_cycle;Max_cycle;Signal;HPM_P1;HPM_P2
2021/12/30 00:00:58;;;;;;;4.05;1.40;;;20.20;54.90;;;;;;5008983;28;20068;-77
2021/12/30 00:03:23;;;;;;;4.45;1.00;;;20.20;54.90;;;;;;5000104;28;20132;-75
2021/12/30 00:05:50;;;;;;;5.15;1.10;;;20.20;54.90;;;;;;5006283;28;20920;-75
2021/12/30 00:08:16;;;;;;;3.25;1.10;;;20.10;54.90;;;;;;5007500;28;20556;-71
2021/12/30 00:10:42;;;;;;;3.55;1.10;;;20.20;54.90;;;;;;5007549;28;20042;-76
2021/12/30 00:13:07;;;;;;;4.10;1.15;;;20.10;54.90;;;;;;5007631;28;20080;-77
2021/12/30 00:15:34;;;;;;;3.08;1.17;;;20.10;54.90;;;;;;5007864;28;20045;-71
2021/12/30 00:17:59;;;;;;;3.28;1.20;;;20.10;54.90;;;;;;5008456;28;20511;-77
2021/12/30 00:20:26;;;;;;;8.75;1.30;;;20.20;54.90;;;;;;5006977;28;20102;-74
2021/12/30 00:22:52;;;;;;;4.72;1.40;;;20.10;54.80;;;;;;5001857;28;20478;-76
2021/12/30 00:25:18;;;;;;;4.15;1.30;;;20.10;54.90;;;;;;5005467;28;20088;-78
2021/12/30 00:27:44;;;;;;;2.72;1.02;;;20.10;54.90;;;;;;5005552;28;20129;-75
2021/12/30 00:30:12;;;;;;;3.17;1.02;;;20.10;54.80;;;;;;5023494;28;20519;-77
2021/12/30 00:32:37;;;;;;;2.08;1.15;;;20.10;54.80;;;;;;5005916;28;20062;-78
2021/12/30 00:35:04;;;;;;;4.63;1.10;;;20.10;54.90;;;;;;5006068;28;20551;-74
2021/12/30 00:37:29;;;;;;;3.97;1.23;;;20.10;54.80;;;;;;5007136;28;20069;-70
2021/12/30 00:39:58;;;;;;;2.45;1.10;;;20.00;54.80;;;;;;4997353;28;20073;-77
2021/12/30 00:42:24;;;;;;;2.33;1.02;;;20.10;54.90;;;;;;5007544;28;20064;-78
2021/12/30 00:44:49;;;;;;;4.95;1.25;;;20.10;54.80;;;;;;5004862;28;20038;-76
2021/12/30 00:47:15;;;;;;;5.32;1.25;;;20.00;54.80;;;;;;5004946;28;20165;-73
2021/12/30 00:49:40;;;;;;;4.15;1.10;;;20.00;54.80;;;;;;5001938;28;20061;-77
2021/12/30 00:52:09;;;;;;;2.00;1.08;;;20.00;54.70;;;;;;4993204;28;20034;-77
2021/12/30 00:54:35;;;;;;;6.03;1.23;;;20.00;54.70;;;;;;5006123;28;20175;-73
2021/12/30 00:57:00;;;;;;;3.03;1.15;;;20.00;54.70;;;;;;5006141;28;20143;-75
2021/12/30 00:59:26;;;;;;;2.42;1.10;;;20.00;54.70;;;;;;5007068;28;20045;-77
2021/12/30 01:01:51;;;;;;;4.35;1.10;;;20.00;54.70;;;;;;5006373;28;20092;-78
2021/12/30 01:04:18;;;;;;;4.35;1.20;;;20.00;54.80;;;;;;5000122;28;20034;-78
2021/12/30 01:06:44;;;;;;;4.05;1.20;;;20.00;54.70;;;;;;4998593;28;20679;-78
2021/12/30 01:09:09;;;;;;;3.80;1.38;;;20.00;54.70;;;;;;4996917;28;20045;-77
2021/12/30 01:11:35;;;;;;;4.68;1.30;;;20.00;54.70;;;;;;5007108;28;20509;-76
2021/12/30 01:14:05;;;;;;;5.00;1.20;;;20.00;54.70;;;;;;5004513;28;20132;-78
2021/12/30 01:16:35;;;;;;;4.85;1.13;;;20.00;54.70;;;;;;5007355;28;20042;-77
2021/12/30 01:19:22;;;;;;;3.65;1.27;;;20.00;54.70;;;;;;5005127;28;20050;-74
2021/12/30 01:21:49;;;;;;;3.83;0.95;;;20.00;54.70;;;;;;5007772;28;20056;-73
2021/12/30 01:24:14;;;;;;;3.23;1.17;;;20.00;54.70;;;;;;5004323;28;20077;-78
2021/12/30 01:26:40;;;;;;;3.05;1.33;;;20.00;54.60;;;;;;5022817;28;20076;-77
2021/12/30 01:29:06;;;;;;;2.70;1.02;;;20.00;54.60;;;;;;5003698;28;20038;-74
2021/12/30 01:31:32;;;;;;;4.22;1.05;;;20.00;54.60;;;;;;5008258;28;20049;-78
2021/12/30 01:33:57;;;;;;;3.88;1.20;;;19.90;54.50;;;;;;5019621;28;20115;-76
2021/12/30 01:36:26;;;;;;;5.72;1.20;;;20.00;54.60;;;;;;5004608;28;20353;-71
2021/12/30 01:38:52;;;;;;;4.53;1.30;;;20.00;54.70;;;;;;5005744;28;20037;-77
2021/12/30 01:41:18;;;;;;;6.30;1.27;;;20.00;54.60;;;;;;5005023;28;20045;-77
2021/12/30 01:43:43;;;;;;;3.92;1.23;;;19.90;54.60;;;;;;5006444;28;20034;-77
2021/12/30 01:46:09;;;;;;;6.32;1.40;;;19.90;54.50;;;;;;5006033;28;20056;-78
2021/12/30 01:48:36;;;;;;;3.17;1.10;;;19.90;54.50;;;;;;5004465;28;20103;-71
2021/12/30 01:51:02;;;;;;;2.85;1.08;;;19.90;54.50;;;;;;5005448;28;20042;-76
2021/12/30 01:53:28;;;;;;;4.35;1.30;;;19.90;54.50;;;;;;5005984;28;20081;-72
2021/12/30 01:55:54;;;;;;;3.08;1.20;;;19.90;54.50;;;;;;5006679;28;20080;-77
2021/12/30 01:58:20;;;;;;;3.28;1.10;;;19.90;54.50;;;;;;5005109;28;20037;-77
2021/12/30 02:00:48;;;;;;;4.70;1.45;;;19.90;54.50;;;;;;5006537;28;20054;-77
2021/12/30 02:03:14;;;;;;;3.28;1.30;;;20.00;54.50;;;;;;5004649;28;20044;-77
2021/12/30 02:05:41;;;;;;;5.68;1.30;;;19.90;54.40;;;;;;5006535;28;20045;-76
2021/12/30 02:08:10;;;;;;;4.32;1.40;;;19.90;54.40;;;;;;5004676;28;20042;-76
2021/12/30 02:10:36;;;;;;;4.22;1.40;;;19.90;54.50;;;;;;5006517;28;20041;-77
2021/12/30 02:13:02;;;;;;;4.45;1.30;;;19.90;54.40;;;;;;5021185;28;20452;-78
2021/12/30 02:15:27;;;;;;;3.67;1.10;;;19.90;54.40;;;;;;5003982;28;20045;-78
2021/12/30 02:17:54;;;;;;;2.85;1.20;;;19.90;54.40;;;;;;5004145;28;20038;-77
2021/12/30 02:20:43;;;;;;;5.25;1.42;;;19.90;54.40;;;;;;5004516;28;20038;-78
2021/12/30 02:23:09;;;;;;;3.85;1.13;;;19.90;54.40;;;;;;5005581;28;20053;-76
2021/12/30 02:25:35;;;;;;;4.30;1.30;;;19.90;54.30;;;;;;5003453;28;20088;-71
2021/12/30 02:28:12;;;;;;;2.92;1.20;;;19.90;54.30;;;;;;5003927;28;20046;-73
2021/12/30 02:30:39;;;;;;;3.70;1.30;;;19.90;54.30;;;;;;5004343;28;20041;-76
2021/12/30 02:33:05;;;;;;;5.22;1.55;;;19.90;54.30;;;;;;5002793;28;20065;-78
2021/12/30 02:35:32;;;;;;;3.75;1.20;;;19.90;54.20;;;;;;5019224;28;20050;-77
2021/12/30 02:37:58;;;;;;;3.35;1.10;;;19.90;54.20;;;;;;5005048;28;20053;-77
2021/12/30 02:40:26;;;;;;;4.60;1.30;;;19.90;54.20;;;;;;5003649;28;20038;-78
2021/12/30 02:42:52;;;;;;;3.92;1.50;;;19.90;54.20;;;;;;5003321;28;20507;-81
2021/12/30 02:45:17;;;;;;;4.90;1.38;;;19.90;54.20;;;;;;5003040;28;20053;-79
2021/12/30 02:47:43;;;;;;;5.17;1.33;;;19.90;54.20;;;;;;5002792;28;20141;-78
2021/12/30 02:50:09;;;;;;;4.30;1.20;;;19.90;54.20;;;;;;4995892;28;20580;-76
2021/12/30 02:52:34;;;;;;;4.25;1.02;;;19.90;54.20;;;;;;4999185;28;20050;-74
2021/12/30 02:55:00;;;;;;;5.10;1.42;;;19.90;54.10;;;;;;5002942;28;20053;-76
2021/12/30 02:57:26;;;;;;;3.67;1.27;;;19.90;54.10;;;;;;5005055;28;20041;-68
2021/12/30 02:59:51;;;;;;;6.63;1.55;;;19.90;54.10;;;;;;4998806;28;20142;-77
2021/12/30 03:02:17;;;;;;;5.47;1.52;;;19.90;54.10;;;;;;5004144;28;20490;-77
2021/12/30 03:04:42;;;;;;;5.10;1.60;;;19.90;54.10;;;;;;4998814;28;20097;-78
2021/12/30 03:07:08;;;;;;;6.78;1.58;;;19.90;54.10;;;;;;4996864;28;20169;-77
2021/12/30 03:09:34;;;;;;;3.85;1.40;;;19.90;54.10;;;;;;5004805;28;20069;-78
2021/12/30 03:12:00;;;;;;;5.30;1.30;;;19.90;54.10;;;;;;4998317;28;20060;-77
2021/12/30 03:14:26;;;;;;;8.75;1.60;;;20.00;54.10;;;;;;5007174;28;20050;-76
2021/12/30 03:16:52;;;;;;;4.50;1.45;;;20.00;54.10;;;;;;5006681;28;20043;-78
2021/12/30 03:19:18;;;;;;;4.60;1.38;;;19.90;54.00;;;;;;5021897;28;20052;-73
2021/12/30 03:21:43;;;;;;;3.83;1.30;;;19.90;54.00;;;;;;5007849;28;20159;-78
2021/12/30 03:24:09;;;;;;;4.10;1.20;;;19.90;54.00;;;;;;5007408;28;20041;-77
2021/12/30 03:26:35;;;;;;;4.43;1.25;;;19.90;54.00;;;;;;5009276;28;20042;-77
2021/12/30 03:29:01;;;;;;;3.75;1.42;;;19.90;54.00;;;;;;5008549;28;20041;-75
2021/12/30 03:31:28;;;;;;;6.13;1.50;;;19.90;54.00;;;;;;5008192;28;20117;-76
2021/12/30 03:33:53;;;;;;;5.20;1.60;;;19.90;53.90;;;;;;5007967;28;20986;-73
2021/12/30 03:36:20;;;;;;;4.63;1.38;;;19.90;53.90;;;;;;5006908;28;20033;-73
2021/12/30 03:38:48;;;;;;;5.25;1.58;;;19.90;54.00;;;;;;5005086;28;20092;-77
2021/12/30 03:41:16;;;;;;;5.40;1.27;;;19.90;53.90;;;;;;5006411;28;20038;-74
2021/12/30 03:43:42;;;;;;;5.82;1.70;;;19.90;53.90;;;;;;5008206;28;20129;-76
2021/12/30 03:46:08;;;;;;;4.85;1.30;;;19.90;53.90;;;;;;5008284;28;20151;-75
2021/12/30 03:48:40;;;;;;;4.47;1.40;;;19.90;53.90;;;;;;5007494;28;20045;-77
2021/12/30 03:51:09;;;;;;;3.70;1.30;;;19.90;53.80;;;;;;5001946;28;20046;-77
2021/12/30 03:53:38;;;;;;;5.45;1.50;;;19.90;53.80;;;;;;5021886;28;20876;-70
2021/12/30 03:56:10;;;;;;;5.53;1.42;;;19.90;53.80;;;;;;5007745;28;20045;-77
2021/12/30 03:58:38;;;;;;;5.63;1.30;;;20.00;53.90;;;;;;5008308;28;20600;-78
2021/12/30 04:01:05;;;;;;;4.85;1.52;;;19.90;53.80;;;;;;5003262;28;20057;-77
2021/12/30 04:03:30;;;;;;;5.70;1.60;;;19.90;53.80;;;;;;5008308;28;20096;-78
2021/12/30 04:05:56;;;;;;;4.25;1.50;;;20.00;53.80;;;;;;5003151;28;20042;-77
2021/12/30 04:08:22;;;;;;;5.88;1.70;;;19.90;53.80;;;;;;5006288;28;20561;-78
2021/12/30 04:10:47;;;;;;;4.72;1.20;;;19.90;53.70;;;;;;5000946;28;20053;-78
2021/12/30 04:13:14;;;;;;;3.85;1.30;;;19.90;53.70;;;;;;5006689;28;20038;-77
2021/12/30 04:15:39;;;;;;;4.65;1.48;;;19.90;53.80;;;;;;5007986;28;20030;-78
2021/12/30 04:18:05;;;;;;;5.15;1.67;;;19.90;53.70;;;;;;5007163;28;20052;-78
2021/12/30 04:20:30;;;;;;;3.67;1.40;;;19.90;53.70;;;;;;5005210;28;20042;-76
2021/12/30 04:22:59;;;;;;;;;;;19.90;53.70;;;;;;5006967;28;20125;-78
2021/12/30 04:25:24;;;;;;;3.63;1.45;;;19.90;53.70;;;;;;5008201;28;20012;-78
2021/12/30 04:27:50;;;;;;;4.13;1.50;;;19.90;53.70;;;;;;5006423;28;20049;-71
2021/12/30 04:30:16;;;;;;;3.28;1.10;;;19.90;53.70;;;;;;5003949;28;20482;-76
2021/12/30 04:32:43;;;;;;;4.80;1.40;;;20.00;53.80;;;;;;5007719;28;20040;-78
2021/12/30 04:35:10;;;;;;;5.05;1.35;;;19.90;53.70;;;;;;5007059;28;20157;-78
2021/12/30 04:37:36;;;;;;;6.82;1.60;;;19.90;53.70;;;;;;5004259;28;20536;-71
2021/12/30 04:40:04;;;;;;;4.07;1.50;;;20.00;53.70;;;;;;5004595;28;20042;-77
2021/12/30 04:42:30;;;;;;;;;;;19.90;53.70;;;;;;5005595;28;20038;-74
2021/12/30 04:44:56;;;;;;;4.00;1.45;;;20.00;53.60;;;;;;4998747;28;19932;-77
2021/12/30 04:47:22;;;;;;;5.00;1.50;;;20.00;53.60;;;;;;4988824;28;20530;-78
2021/12/30 04:49:49;;;;;;;6.65;1.60;;;19.90;53.60;;;;;;5000630;28;20046;-78
2021/12/30 04:52:15;;;;;;;4.25;1.58;;;20.00;53.60;;;;;;4991614;28;20396;-70
2021/12/30 04:54:40;;;;;;;4.72;1.40;;;20.00;53.60;;;;;;5008169;28;20053;-78
2021/12/30 04:57:06;;;;;;;3.53;1.42;;;20.00;53.60;;;;;;5005196;28;20449;-75
2021/12/30 04:59:35;;;;;;;6.90;1.40;;;20.00;53.60;;;;;;4998027;28;20069;-78
2021/12/30 05:02:00;;;;;;;6.65;1.52;;;20.00;53.60;;;;;;5003427;28;20038;-78
2021/12/30 05:04:26;;;;;;;6.28;1.70;;;20.00;53.50;;;;;;5020812;28;20050;-74
2021/12/30 05:06:52;;;;;;;4.70;1.42;;;20.00;53.50;;;;;;4993788;28;20053;-77
2021/12/30 05:09:18;;;;;;;5.10;1.30;;;20.00;53.50;;;;;;5004940;28;20042;-73
2021/12/30 05:11:44;;;;;;;6.78;1.75;;;20.00;53.50;;;;;;5004433;28;20565;-77
2021/12/30 05:14:10;;;;;;;6.63;1.65;;;20.00;53.50;;;;;;5006017;28;20616;-73
2021/12/30 05:16:36;;;;;;;3.63;1.40;;;20.00;53.50;;;;;;4992863;28;20044;-78
2021/12/30 05:19:02;;;;;;;5.55;1.48;;;20.00;53.50;;;;;;5001186;28;20054;-78
2021/12/30 05:21:28;;;;;;;5.03;1.50;;;20.00;53.50;;;;;;5004198;28;20049;-76
2021/12/30 05:23:53;;;;;;;3.80;1.45;;;20.00;53.50;;;;;;5005405;28;20042;-77
2021/12/30 05:26:19;;;;;;;6.75;1.73;;;20.00;53.50;;;;;;5005462;28;20052;-77
2021/12/30 05:28:45;;;;;;;5.50;1.50;;;20.00;53.50;;;;;;5006322;28;20168;-74
2021/12/30 05:31:11;;;;;;;3.67;1.38;;;20.00;53.40;;;;;;5004298;28;20056;-77
2021/12/30 05:33:37;;;;;;;4.95;1.70;;;20.00;53.40;;;;;;4987868;28;20196;-72
2021/12/30 05:36:03;;;;;;;5.68;1.88;;;20.00;53.40;;;;;;4969219;28;20137;-75
2021/12/30 05:38:29;;;;;;;4.97;1.52;;;20.00;53.40;;;;;;4998112;28;20980;-75
2021/12/30 05:40:54;;;;;;;6.10;1.88;;;20.00;53.50;;;;;;5003332;28;20046;-73
2021/12/30 05:43:20;;;;;;;5.55;1.70;;;20.00;53.50;;;;;;4990639;28;20046;-73
2021/12/30 05:45:46;;;;;;;4.72;1.45;;;20.00;53.50;;;;;;4989307;28;20111;-73
2021/12/30 05:48:11;;;;;;;4.43;1.73;;;20.00;53.50;;;;;;4989181;28;20089;-76
2021/12/30 05:50:37;;;;;;;4.60;1.70;;;20.00;53.50;;;;;;5004145;28;20038;-77
2021/12/30 05:53:03;;;;;;;3.88;1.40;;;20.00;53.40;;;;;;5004498;28;20081;-77
2021/12/30 05:55:29;;;;;;;6.40;1.85;;;20.00;53.50;;;;;;5005704;28;20053;-77
2021/12/30 05:57:55;;;;;;;4.10;1.60;;;20.00;53.50;;;;;;5006125;28;20037;-76
2021/12/30 06:00:23;;;;;;;4.90;1.70;;;20.00;53.50;;;;;;5005766;28;20369;-72
2021/12/30 06:02:50;;;;;;;4.57;1.48;;;20.00;53.40;;;;;;5017995;28;20043;-77
2021/12/30 06:05:15;;;;;;;4.55;1.50;;;20.00;53.40;;;;;;5004464;28;20497;-77
2021/12/30 06:07:42;;;;;;;6.07;1.73;;;20.00;53.40;;;;;;5005744;28;20057;-73
2021/12/30 06:10:08;;;;;;;5.25;1.40;;;20.00;53.50;;;;;;5003231;28;20037;-67
2021/12/30 06:12:33;;;;;;;5.78;1.40;;;20.00;53.40;;;;;;5020750;28;20495;-78
2021/12/30 06:14:59;;;;;;;4.88;1.50;;;20.00;53.40;;;;;;5006100;28;20042;-78
2021/12/30 06:17:25;;;;;;;5.10;1.60;;;20.00;53.40;;;;;;5004476;28;20081;-70
2021/12/30 06:19:50;;;;;;;4.18;1.67;;;20.00;53.40;;;;;;5004663;28;20115;-77
2021/12/30 06:22:16;;;;;;;4.25;1.40;;;20.00;53.40;;;;;;5004715;28;20095;-79
2021/12/30 06:24:43;;;;;;;4.47;1.42;;;20.00;53.50;;;;;;5006163;28;21127;-79
2021/12/30 06:27:09;;;;;;;3.35;1.20;;;20.00;53.50;;;;;;5003187;28;20042;-73
2021/12/30 06:29:36;;;;;;;3.75;1.35;;;20.00;53.50;;;;;;4986331;28;20038;-78
2021/12/30 06:32:04;;;;;;;4.53;1.60;;;20.00;53.50;;;;;;4986336;28;20962;-79
2021/12/30 06:34:30;;;;;;;4.97;1.70;;;20.00;53.50;;;;;;5001403;28;20045;-74
2021/12/30 06:36:56;;;;;;;4.63;1.27;;;20.00;53.50;;;;;;4992218;28;20026;-79
2021/12/30 06:39:21;;;;;;;4.05;1.30;;;20.00;53.50;;;;;;5004798;28;20052;-77
2021/12/30 06:41:47;;;;;;;3.95;1.30;;;20.00;53.50;;;;;;4992257;28;20128;-78
2021/12/30 06:44:13;;;;;;;3.90;1.45;;;20.00;53.50;;;;;;4997249;28;20141;-74
2021/12/30 06:46:39;;;;;;;4.47;1.40;;;20.00;53.40;;;;;;4999235;28;20109;-75
2021/12/30 06:49:08;;;;;;;3.33;1.30;;;20.00;53.40;;;;;;4995907;28;20046;-73
2021/12/30 06:51:35;;;;;;;4.07;1.48;;;20.00;53.40;;;;;;5001475;28;20046;-77
2021/12/30 06:54:01;;;;;;;3.75;1.38;;;20.00;53.40;;;;;;5003773;28;20420;-77
2021/12/30 06:56:27;;;;;;;3.13;1.15;;;20.00;53.50;;;;;;5004159;28;20077;-78
2021/12/30 06:58:52;;;;;;;4.93;1.63;;;20.00;53.40;;;;;;5006205;28;20119;-76
2021/12/30 07:01:18;;;;;;;3.33;1.20;;;20.00;53.50;;;;;;5003489;28;20591;-77
2021/12/30 07:03:44;;;;;;;3.08;1.10;;;20.00;53.40;;;;;;5001347;28;20595;-78
2021/12/30 07:06:09;;;;;;;5.18;1.60;;;20.00;53.50;;;;;;4996967;28;20534;-73
2021/12/30 07:08:35;;;;;;;3.00;1.10;;;20.00;53.50;;;;;;4996734;28;20225;-77
2021/12/30 07:11:00;;;;;;;3.67;1.25;;;20.00;53.50;;;;;;5000108;28;20065;-78
2021/12/30 07:13:26;;;;;;;3.78;1.30;;;20.00;53.50;;;;;;5019687;28;20041;-78
2021/12/30 07:15:52;;;;;;;4.57;1.40;;;20.00;53.50;;;;;;5000798;28;20903;-73
2021/12/30 07:18:17;;;;;;;4.88;1.52;;;20.00;53.50;;;;;;4985827;28;20037;-76
2021/12/30 07:20:43;;;;;;;8.15;1.20;;;20.00;53.60;;;;;;5003558;28;20045;-76
2021/12/30 07:23:09;;;;;;;3.10;1.10;;;20.00;53.80;;;;;;4996829;28;20410;-72
2021/12/30 07:25:35;;;;;;;2.60;1.20;;;20.10;53.90;;;;;;5003131;28;20046;-79
2021/12/30 07:28:03;;;;;;;4.68;1.20;;;20.10;53.90;;;;;;4990811;28;20077;-77
2021/12/30 07:30:29;;;;;;;3.72;1.20;;;20.10;53.90;;;;;;4998927;28;20443;-79
2021/12/30 07:32:55;;;;;;;5.95;1.23;;;20.10;53.90;;;;;;5000618;28;20768;-80
2021/12/30 07:35:21;;;;;;;3.58;1.20;;;20.10;53.90;;;;;;4999204;28;20030;-75
2021/12/30 07:37:48;;;;;;;5.63;1.25;;;20.10;54.10;;;;;;4989553;28;20136;-79
2021/12/30 07:40:14;;;;;;;6.28;1.25;;;20.10;54.20;;;;;;4999028;28;20103;-79
2021/12/30 07:42:41;;;;;;;5.47;1.10;;;20.10;54.30;;;;;;4990588;28;20475;-78
2021/12/30 07:45:09;;;;;;;3.08;1.10;;;20.10;54.40;;;;;;4988330;28;20038;-77
2021/12/30 07:47:35;;;;;;;4.13;1.30;;;20.10;54.40;;;;;;5001434;28;20498;-76
2021/12/30 07:50:01;;;;;;;6.10;1.35;;;20.20;54.60;;;;;;4994538;28;20053;-75
2021/12/30 07:52:26;;;;;;;3.08;1.20;;;20.20;54.70;;;;;;4995797;28;20045;-75
2021/12/30 07:54:52;;;;;;;6.00;1.10;;;20.20;54.70;;;;;;4993621;28;20054;-78
2021/12/30 07:57:21;;;;;;;3.67;1.25;;;20.20;54.70;;;;;;5005153;28;20042;-75
2021/12/30 07:59:47;;;;;;;7.30;1.20;;;20.20;54.70;;;;;;5004085;28;20050;-75
2021/12/30 08:02:13;;;;;;;4.13;1.52;;;20.20;54.70;;;;;;5002121;28;20061;-77
2021/12/30 08:04:39;;;;;;;3.15;1.27;;;20.30;54.80;;;;;;5004034;28;20050;-76
2021/12/30 08:07:04;;;;;;;3.67;0.95;;;20.30;54.80;;;;;;4993638;28;20046;-74
2021/12/30 08:09:30;;;;;;;4.68;1.00;;;20.30;54.90;;;;;;5002444;28;20056;-71
2021/12/30 08:11:55;;;;;;;3.95;1.13;;;20.30;54.90;;;;;;5003657;28;20228;-76
2021/12/30 08:14:21;;;;;;;2.72;1.10;;;20.30;54.90;;;;;;5022802;28;20046;-75
2021/12/30 08:16:46;;;;;;;3.92;0.93;;;20.30;54.90;;;;;;4989315;28;20052;-75
2021/12/30 08:19:12;;;;;;;5.65;1.10;;;20.30;54.90;;;;;;4998418;28;20050;-72
2021/12/30 08:21:41;;;;;;;4.88;1.00;;;20.30;54.90;;;;;;4989068;28;20120;-75
2021/12/30 08:24:08;;;;;;;4.43;1.20;;;20.30;54.90;;;;;;4997082;28;20053;-75
2021/12/30 08:26:34;;;;;;;2.22;1.05;;;20.30;54.90;;;;;;4999468;28;20097;-76
2021/12/30 08:29:00;;;;;;;4.57;1.00;;;20.30;54.90;;;;;;5001845;28;20057;-72
2021/12/30 08:31:25;;;;;;;2.08;1.00;;;20.40;55.00;;;;;;5004735;28;20393;-80
2021/12/30 08:33:51;;;;;;;2.55;0.90;;;20.40;55.00;;;;;;5005140;28;20050;-79
2021/12/30 08:36:16;;;;;;;3.17;1.00;;;20.40;55.00;;;;;;5006390;28;20056;-78
2021/12/30 08:38:42;;;;;;;1.85;0.80;;;20.40;55.00;;;;;;5000825;28;20168;-78
2021/12/30 08:41:08;;;;;;;5.55;1.05;;;20.40;54.90;;;;;;5002668;28;20644;-78
2021/12/30 08:43:33;;;;;;;5.25;0.90;;;20.40;54.90;;;;;;4997315;28;20057;-74
2021/12/30 08:45:59;;;;;;;4.15;1.20;;;20.40;55.00;;;;;;5003265;28;20037;-73
2021/12/30 08:48:25;;;;;;;3.20;1.00;;;20.40;55.00;;;;;;4993001;28;20038;-77
2021/12/30 08:50:50;;;;;;;5.68;1.25;;;20.40;55.10;;;;;;4995556;28;20469;-76
2021/12/30 08:53:16;;;;;;;2.92;0.85;;;20.40;55.10;;;;;;4994790;28;20054;-73
2021/12/30 08:55:45;;;;;;;7.80;1.52;;;20.40;55.10;;;;;;4991174;28;20096;-78
2021/12/30 08:58:10;;;;;;;5.72;1.00;;;20.40;55.00;;;;;;5005861;28;20057;-78
2021/12/30 09:00:38;;;;;;;3.45;0.90;;;20.40;55.10;;;;;;5002599;28;20060;-78
2021/12/30 09:03:05;;;;;;;2.92;1.00;;;20.40;55.00;;;;;;4999884;28;20042;-74
2021/12/30 09:05:32;;;;;;;3.40;0.90;;;20.40;55.00;;;;;;5001829;28;20608;-74
2021/12/30 09:07:58;;;;;;;2.97;1.07;;;20.30;55.80;;;;;;4999800;28;20069;-75
2021/12/30 09:10:25;;;;;;;2.25;0.80;;;20.30;55.00;;;;;;5003080;28;20553;-76
2021/12/30 09:12:52;;;;;;;7.18;1.10;;;20.30;55.10;;;;;;5004509;28;20038;-71
2021/12/30 09:15:23;;;;;;;6.68;0.90;;;20.30;55.10;;;;;;4998176;28;20092;-78
2021/12/30 09:17:49;;;;;;;4.03;0.82;;;20.30;55.20;;;;;;4998688;28;20111;-76
2021/12/30 09:20:17;;;;;;;4.53;1.23;;;20.30;55.20;;;;;;4999649;28;20567;-73
2021/12/30 09:22:42;;;;;;;4.13;1.15;;;20.30;55.20;;;;;;4993865;28;20513;-75
2021/12/30 09:25:10;;;;;;;3.70;0.90;;;20.30;55.20;;;;;;5002467;28;20053;-73
2021/12/30 09:27:37;;;;;;;3.88;0.90;;;20.30;55.20;;;;;;4995127;28;20054;-75
2021/12/30 09:30:10;;;;;;;3.10;1.10;;;20.30;56.00;;;;;;5004498;28;20085;-77
2021/12/30 09:32:36;;;;;;;4.88;0.80;;;20.30;55.20;;;;;;5001495;28;20117;-75
2021/12/30 09:35:03;;;;;;;4.38;0.80;;;20.20;55.10;;;;;;5003894;28;20138;-77
2021/12/30 09:37:31;;;;;;;2.17;0.75;;;20.20;55.10;;;;;;5005344;28;20046;-78
2021/12/30 09:39:59;;;;;;;2.40;0.80;;;20.20;55.10;;;;;;5005860;28;20053;-77
2021/12/30 09:42:25;;;;;;;2.60;0.80;;;20.30;55.20;;;;;;5004412;28;20037;-78
2021/12/30 09:44:51;;;;;;;2.75;0.80;;;20.20;55.10;;;;;;5001743;28;20121;-75
2021/12/30 09:47:17;;;;;;;5.28;0.98;;;20.20;55.10;;;;;;5004425;28;20124;-72
2021/12/30 09:49:42;;;;;;;6.05;0.98;;;20.20;55.20;;;;;;5001248;28;20141;-77
2021/12/30 09:52:08;;;;;;;1.58;0.70;;;20.20;55.20;;;;;;5003316;28;20476;-77
2021/12/30 09:54:34;;;;;;;4.30;0.88;;;20.20;55.20;;;;;;5005061;28;20046;-66
2021/12/30 09:56:59;;;;;;;3.67;1.08;;;20.20;55.30;;;;;;4998706;28;20047;-74
2021/12/30 09:59:26;;;;;;;7.03;1.48;;;20.20;55.30;;;;;;4988506;28;20049;-75
2021/12/30 10:01:52;;;;;;;2.17;0.88;;;20.20;55.50;;;;;;5002371;28;20080;-76
2021/12/30 10:04:27;;;;;;;3.15;0.90;;;20.20;55.70;;;;;;5005314;28;20069;-75
2021/12/30 10:06:53;;;;;;;6.00;0.90;;;20.30;55.90;;;;;;5002119;28;20050;-74
2021/12/30 10:09:18;;;;;;;4.35;0.85;;;20.30;56.00;;;;;;5003332;28;20080;-71
2021/12/30 10:11:48;;;;;;;4.07;0.90;;;20.30;56.10;;;;;;5002636;28;20046;-77
2021/12/30 10:14:27;;;;;;;3.47;0.80;;;20.30;57.00;;;;;;4991278;28;20053;-80
2021/12/30 10:17:20;;;;;;;2.42;0.75;;;20.30;56.40;;;;;;5003729;28;20069;-76
2021/12/30 10:19:47;;;;;;;2.45;0.80;;;20.30;57.30;;;;;;5001080;28;20046;-78
2021/12/30 10:22:15;;;;;;;4.72;1.10;;;20.40;56.40;;;;;;5005455;28;20073;-77
2021/12/30 10:24:44;;;;;;;3.33;1.02;;;20.40;56.50;;;;;;4991041;28;20057;-76
2021/12/30 10:27:25;;;;;;;3.65;0.70;;;20.40;56.50;;;;;;5005490;28;20042;-76
2021/12/30 10:29:51;;;;;;;5.43;0.90;;;20.40;56.60;;;;;;5001628;28;20060;-77
2021/12/30 10:32:20;;;;;;;2.97;0.82;;;20.40;56.60;;;;;;5002807;28;20050;-71
2021/12/30 10:35:09;;;;;;;2.35;0.90;;;20.50;56.70;;;;;;5004548;28;20130;-72
2021/12/30 10:37:36;;;;;;;3.72;0.73;;;20.50;56.80;;;;;;4999808;28;20100;-72
2021/12/30 10:40:04;;;;;;;2.42;0.85;;;20.50;56.70;;;;;;4998395;28;20124;-71
2021/12/30 10:42:32;;;;;;;5.33;1.00;;;20.50;56.70;;;;;;5003314;28;20046;-72
2021/12/30 10:45:06;;;;;;;6.57;1.15;;;20.50;56.60;;;;;;5001664;28;20727;-73
2021/12/30 10:47:49;;;;;;;2.58;0.88;;;20.50;56.60;;;;;;4999849;28;20620;-70
2021/12/30 10:50:21;;;;;;;4.00;0.98;;;20.50;56.60;;;;;;4982405;28;20050;-73
2021/12/30 10:52:52;;;;;;;2.85;0.95;;;20.50;56.60;;;;;;4995104;28;20638;-75
2021/12/30 10:55:19;;;;;;;5.05;0.80;;;20.50;56.60;;;;;;5003894;28;20052;-73
2021/12/30 10:57:45;;;;;;;1.85;0.90;;;20.50;56.60;;;;;;4998778;28;20089;-71
2021/12/30 11:00:23;;;;;;;5.50;1.02;;;20.50;56.60;;;;;;4999856;28;20077;-71
2021/12/30 11:02:48;;;;;;;3.03;1.00;;;20.50;56.60;;;;;;5003230;28;20046;-72
2021/12/30 11:05:18;;;;;;;5.00;1.10;;;20.50;56.60;;;;;;5003268;28;20061;-72
2021/12/30 11:07:48;;;;;;;3.47;1.50;;;20.50;56.50;;;;;;5000647;28;20053;-67
2021/12/30 11:10:16;;;;;;;3.28;1.23;;;20.50;56.60;;;;;;5003557;28;20080;-72
2021/12/30 11:12:44;;;;;;;5.38;1.00;;;20.50;56.50;;;;;;5000437;28;20502;-72
2021/12/30 11:15:17;;;;;;;;;;;20.50;56.50;;;;;;5001969;28;20088;-69
2021/12/30 11:17:42;;;;;;;2.00;1.10;;;20.50;56.30;;;;;;5013920;28;19921;-71
2021/12/30 11:20:11;;;;;;;2.88;1.08;;;20.40;56.30;;;;;;4993141;28;20570;-73
2021/12/30 11:22:39;;;;;;;3.28;1.10;;;20.40;56.30;;;;;;4998343;28;20046;-72
2021/12/30 11:25:12;;;;;;;3.92;1.30;;;20.40;56.40;;;;;;4993868;28;20041;-69
2021/12/30 11:27:41;;;;;;;5.55;1.20;;;20.40;56.30;;;;;;4998586;28;20132;-70
2021/12/30 11:30:11;;;;;;;3.40;1.17;;;20.40;56.30;;;;;;4991976;28;20046;-71
2021/12/30 11:32:38;;;;;;;4.30;1.20;;;20.40;56.40;;;;;;5006204;28;20061;-74
2021/12/30 11:35:05;;;;;;;4.22;1.40;;;20.40;56.40;;;;;;5006147;28;20038;-77
2021/12/30 11:37:33;;;;;;;2.92;1.20;;;20.40;56.40;;;;;;5002639;28;20045;-72
2021/12/30 11:40:01;;;;;;;5.47;1.47;;;20.40;56.40;;;;;;5003193;28;20042;-75
2021/12/30 11:42:36;;;;;;;5.30;1.50;;;20.40;56.40;;;;;;5001198;28;20042;-73
2021/12/30 11:45:20;;;;;;;2.88;1.40;;;20.40;56.50;;;;;;5004210;28;20140;-73
2021/12/30 11:47:47;;;;;;;6.82;1.45;;;20.40;56.50;;;;;;5003561;28;20034;-71
2021/12/30 11:50:15;;;;;;;6.65;1.60;;;20.40;56.60;;;;;;4998799;28;20038;-74
2021/12/30 11:53:02;;;;;;;5.25;1.73;;;20.40;56.70;;;;;;4999685;28;20042;-71
2021/12/30 11:55:46;;;;;;;5.40;1.50;;;20.40;56.70;;;;;;4998985;28;20065;-72
2021/12/30 11:58:40;;;;;;;3.50;1.27;;;20.40;56.70;;;;;;5000455;28;20061;-69
2021/12/30 12:01:27;;;;;;;3.58;1.20;;;20.40;56.70;;;;;;4999379;28;20062;-74
2021/12/30 12:03:53;;;;;;;5.38;1.60;;;20.40;56.70;;;;;;4999399;28;20042;-69
2021/12/30 12:06:28;;;;;;;10.60;1.85;;;20.40;56.60;;;;;;4998900;28;20057;-66
2021/12/30 12:09:08;;;;;;;4.00;1.30;;;20.40;56.80;;;;;;4996094;28;20042;-67
2021/12/30 12:11:40;;;;;;;6.05;1.40;;;20.40;56.90;;;;;;4999690;28;20066;-67
2021/12/30 12:14:16;;;;;;;4.65;1.40;;;20.40;56.90;;;;;;4997349;28;20050;-68
2021/12/30 12:16:44;;;;;;;7.93;1.60;;;20.40;56.90;;;;;;4997535;28;20149;-71
2021/12/30 12:19:11;;;;;;;14.82;2.10;;;20.40;56.90;;;;;;4997861;28;20496;-67
2021/12/30 12:21:41;;;;;;;12.80;1.70;;;20.40;56.90;;;;;;4994687;28;20034;-67
2021/12/30 12:24:28;;;;;;;5.30;1.55;;;20.40;56.90;;;;;;4994919;28;20146;-68
2021/12/30 12:26:56;;;;;;;8.38;2.20;;;20.50;57.00;;;;;;5001023;28;20081;-73
2021/12/30 12:29:39;;;;;;;7.70;1.85;;;20.50;57.00;;;;;;5016314;28;20049;-73
2021/12/30 12:32:11;;;;;;;8.88;1.63;;;20.50;57.00;;;;;;4999078;28;20494;-70
2021/12/30 12:34:53;;;;;;;5.30;1.50;;;20.50;57.00;;;;;;5016596;28;20073;-73
2021/12/30 12:37:37;;;;;;;8.68;1.92;;;20.50;57.00;;;;;;5002590;28;20041;-75
2021/12/30 12:40:11;;;;;;;8.05;1.90;;;20.50;57.00;;;;;;5001166;28;20042;-72
2021/12/30 12:42:48;;;;;;;6.97;1.73;;;20.50;57.10;;;;;;5002968;28;20129;-71
2021/12/30 12:45:33;;;;;;;9.73;2.23;;;20.50;57.10;;;;;;5002281;28;20041;-71
2021/12/30 12:48:17;;;;;;;6.32;1.75;;;20.50;57.10;;;;;;5003125;28;20493;-73
2021/12/30 12:51:02;;;;;;;5.75;1.50;;;20.50;57.10;;;;;;5002653;28;20165;-71